(°C)
17°
17°
17°
17°
18°
18°
19°
(°C)
17°
17°
17°
17°
17°
17°
18°
NW
NW
NW
NW
NW
NW
NNW
(كم/سا)
9-22
10-22
11-21
12-22
14-23
14-23
14-26
(مم)
1
0
0
0
0
0
0
(%)
26
16
21
21
16
17
15

مستوى ارتفاع الشمس

/ -24.8°
sun-icon
UV 3
06:43
18:39
قمر المساء (264°)
22:22
14:28

متر لIvanka pri Dunaji (LZIB)

الوقت الشروط درجة الحرارة/
نقطة الندى
رياح مجال رؤية حالة الطقس غيوم الضغط تغيير خام
VFR 17°C / 15°C 310º variable 280º to 340º 3kt >10km - Few Clouds 1000ft 1018 - LZIB 280200Z 31003KT 280V340 9999 FEW010 SCT036 17/15 Q1018
VFR 17°C / 15°C 280º 7kt >10km Light Rain 1.00mm precipitation Vertical Visibility of 0ft. 1018 - LZIB 280130Z 28007KT 9999 -RA FEW010 BKN036 17/15 Q1018
VFR 17°C / 15°C 210º variable 160º to 250º 3kt >10km Light Rain 1.00mm precipitation Vertical Visibility of 0ft. 1019 - LZIB 280100Z 21003KT 160V250 9999 -RA FEW010 SCT033 BKN043 17/15 Q1019
VFR 17°C / 15°C 320º variable 280º to 340º 5kt >10km Light Rain 1.00mm precipitation Vertical Visibility of 0ft. 1018 - LZIB 280030Z 32005KT 280V340 9999 -RA FEW010 SCT033 BKN045 17/15 Q1018
MVFR 17°C / 14°C 320º 7kt >10km - Few Clouds 1000ft 1019 - LZIB 280000Z 32007KT 9999 FEW010 BKN029 BKN043 17/14 Q1019
VFR 17°C / 15°C 310º 7kt >10km - Few Clouds 1000ft 1018 - LZIB 272330Z 31007KT 9999 FEW010 BKN032 17/15 Q1018
VFR 17°C / 15°C 310º 8kt >10km Light Rain 1.00mm precipitation Vertical Visibility of 0ft. 1018 - LZIB 272300Z 31008KT 9999 -RA FEW010 SCT025 BKN033 17/15 Q1018
MVFR 17°C / 15°C 310º 8kt >10km - Few Clouds 900ft 1018 - LZIB 272230Z 31008KT 9999 FEW009 BKN028 17/15 Q1018
MVFR 16°C / 15°C 290º 4kt >10km - Few Clouds 800ft 1018 - LZIB 272200Z 29004KT 9999 FEW008 SCT025 BKN028 16/15 Q1018
MVFR 16°C / 15°C 300º 4kt >10km - Few Clouds 800ft 1018 - LZIB 272130Z 30004KT 9999 FEW008 SCT018 BKN024 16/15 Q1018
MVFR 16°C / 15°C 320º 3kt >10km - Few Clouds 900ft 1018 - LZIB 272100Z 32003KT 9999 FEW009 SCT017 BKN021 16/15 Q1018
MVFR 16°C / 15°C 320º 3kt >10km - Few Clouds 800ft 1018 - LZIB 272030Z 32003KT 9999 FEW008 SCT013 BKN016 16/15 Q1018
MVFR 16°C / 15°C 320º 3kt >10km - Few Clouds 900ft 1018 - LZIB 272000Z 32003KT 9999 FEW009 SCT011 BKN015 16/15 Q1018
MVFR 16°C / 15°C 340º 3kt >10km - Few Clouds 900ft 1018 - LZIB 271930Z 34003KT 9999 FEW009 BKN014 BKN020 16/15 Q1018
MVFR 16°C / 15°C 360º 3kt >10km - Few Clouds 600ft 1018 - LZIB 271900Z 36003KT 9999 FEW006 BKN010 BKN017 16/15 Q1018
MVFR 16°C / 15°C variable 2kt >10km - Few Clouds 600ft 1018 - LZIB 271830Z VRB02KT 9999 FEW006 SCT010 BKN022 16/15 Q1018
MVFR 16°C / 15°C 350º 2kt >10km Light Rain 1.00mm precipitation Vertical Visibility of 0ft. 1018 No Significant change LZIB 271800Z 35002KT 9999 -RA FEW005 SCT012 BKN023 16/15 Q1018 NOSIG
MVFR 16°C / 15°C 360º 2kt >10km Light Rain 1.00mm precipitation Vertical Visibility of 0ft. 1018 No Significant change LZIB 271730Z 36002KT 9999 -RA FEW005 SCT014 BKN019 16/15 Q1018 NOSIG
MVFR 16°C / 15°C variable 2kt >10km Light Rain 1.00mm precipitation Vertical Visibility of 0ft. 1017 No Significant change LZIB 271700Z VRB02KT 9999 -RA FEW003 SCT013 BKN020 16/15 Q1017 NOSIG
MVFR 16°C / 15°C 350º 3kt >10km Light Rain 1.00mm precipitation Vertical Visibility of 0ft. 1017 No Significant change LZIB 271630Z 35003KT 9999 -RA FEW004 SCT019 BKN027 16/15 Q1017 NOSIG
MVFR 16°C / 15°C 360º 3kt >10km Light Rain 1.00mm precipitation Vertical Visibility of 0ft. 1017 No Significant change LZIB 271600Z 36003KT 9999 -RA FEW004 SCT018 BKN024 16/15 Q1017 NOSIG
MVFR 16°C / 15°C 350º 3kt 8000m Light Rain 1.00mm precipitation Vertical Visibility of 0ft. 1017 No Significant change LZIB 271530Z 35003KT 8000 -RA FEW004 BKN018 16/15 Q1017 NOSIG
MVFR 16°C / 15°C 10º 4kt 8000m Light Rain 1.00mm precipitation Vertical Visibility of 0ft. 1017 No Significant change LZIB 271500Z 01004KT 8000 -RA FEW005 SCT014 BKN029 16/15 Q1017 NOSIG
MVFR 16°C / 15°C variable 2kt 8000m Light Rain 1.00mm precipitation Vertical Visibility of 0ft. 1017 No Significant change LZIB 271430Z VRB02KT 8000 -RA FEW005 SCT016 BKN029 16/15 Q1017 RERA NOSIG

VFR

17°C / 15°C

[أكثر]
رياح 310º variable 280º to 340º 3kt
مجال رؤية >10km
حالة الطقس -
غيوم Few Clouds 1000ft
الضغط 1018
تغيير -
خام LZIB 280200Z 31003KT 280V340 9999 FEW010 SCT036 17/15 Q1018

VFR

17°C / 15°C

[أكثر]
رياح 280º 7kt
مجال رؤية >10km
حالة الطقس Light Rain 1.00mm precipitation
غيوم Vertical Visibility of 0ft.
الضغط 1018
تغيير -
خام LZIB 280130Z 28007KT 9999 -RA FEW010 BKN036 17/15 Q1018

VFR

17°C / 15°C

[أكثر]
رياح 210º variable 160º to 250º 3kt
مجال رؤية >10km
حالة الطقس Light Rain 1.00mm precipitation
غيوم Vertical Visibility of 0ft.
الضغط 1019
تغيير -
خام LZIB 280100Z 21003KT 160V250 9999 -RA FEW010 SCT033 BKN043 17/15 Q1019

VFR

17°C / 15°C

[أكثر]
رياح 320º variable 280º to 340º 5kt
مجال رؤية >10km
حالة الطقس Light Rain 1.00mm precipitation
غيوم Vertical Visibility of 0ft.
الضغط 1018
تغيير -
خام LZIB 280030Z 32005KT 280V340 9999 -RA FEW010 SCT033 BKN045 17/15 Q1018

MVFR

17°C / 14°C

[أكثر]
رياح 320º 7kt
مجال رؤية >10km
حالة الطقس -
غيوم Few Clouds 1000ft
الضغط 1019
تغيير -
خام LZIB 280000Z 32007KT 9999 FEW010 BKN029 BKN043 17/14 Q1019

VFR

17°C / 15°C

[أكثر]
رياح 310º 7kt
مجال رؤية >10km
حالة الطقس -
غيوم Few Clouds 1000ft
الضغط 1018
تغيير -
خام LZIB 272330Z 31007KT 9999 FEW010 BKN032 17/15 Q1018

VFR

17°C / 15°C

[أكثر]
رياح 310º 8kt
مجال رؤية >10km
حالة الطقس Light Rain 1.00mm precipitation
غيوم Vertical Visibility of 0ft.
الضغط 1018
تغيير -
خام LZIB 272300Z 31008KT 9999 -RA FEW010 SCT025 BKN033 17/15 Q1018

MVFR

17°C / 15°C

[أكثر]
رياح 310º 8kt
مجال رؤية >10km
حالة الطقس -
غيوم Few Clouds 900ft
الضغط 1018
تغيير -
خام LZIB 272230Z 31008KT 9999 FEW009 BKN028 17/15 Q1018

MVFR

16°C / 15°C

[أكثر]
رياح 290º 4kt
مجال رؤية >10km
حالة الطقس -
غيوم Few Clouds 800ft
الضغط 1018
تغيير -
خام LZIB 272200Z 29004KT 9999 FEW008 SCT025 BKN028 16/15 Q1018

MVFR

16°C / 15°C

[أكثر]
رياح 300º 4kt
مجال رؤية >10km
حالة الطقس -
غيوم Few Clouds 800ft
الضغط 1018
تغيير -
خام LZIB 272130Z 30004KT 9999 FEW008 SCT018 BKN024 16/15 Q1018

MVFR

16°C / 15°C

[أكثر]
رياح 320º 3kt
مجال رؤية >10km
حالة الطقس -
غيوم Few Clouds 900ft
الضغط 1018
تغيير -
خام LZIB 272100Z 32003KT 9999 FEW009 SCT017 BKN021 16/15 Q1018

MVFR

16°C / 15°C

[أكثر]
رياح 320º 3kt
مجال رؤية >10km
حالة الطقس -
غيوم Few Clouds 800ft
الضغط 1018
تغيير -
خام LZIB 272030Z 32003KT 9999 FEW008 SCT013 BKN016 16/15 Q1018

MVFR

16°C / 15°C

[أكثر]
رياح 320º 3kt
مجال رؤية >10km
حالة الطقس -
غيوم Few Clouds 900ft
الضغط 1018
تغيير -
خام LZIB 272000Z 32003KT 9999 FEW009 SCT011 BKN015 16/15 Q1018

MVFR

16°C / 15°C

[أكثر]
رياح 340º 3kt
مجال رؤية >10km
حالة الطقس -
غيوم Few Clouds 900ft
الضغط 1018
تغيير -
خام LZIB 271930Z 34003KT 9999 FEW009 BKN014 BKN020 16/15 Q1018

MVFR

16°C / 15°C

[أكثر]
رياح 360º 3kt
مجال رؤية >10km
حالة الطقس -
غيوم Few Clouds 600ft
الضغط 1018
تغيير -
خام LZIB 271900Z 36003KT 9999 FEW006 BKN010 BKN017 16/15 Q1018

MVFR

16°C / 15°C

[أكثر]
رياح variable 2kt
مجال رؤية >10km
حالة الطقس -
غيوم Few Clouds 600ft
الضغط 1018
تغيير -
خام LZIB 271830Z VRB02KT 9999 FEW006 SCT010 BKN022 16/15 Q1018

MVFR

16°C / 15°C

[أكثر]
رياح 350º 2kt
مجال رؤية >10km
حالة الطقس Light Rain 1.00mm precipitation
غيوم Vertical Visibility of 0ft.
الضغط 1018
تغيير No Significant change
خام LZIB 271800Z 35002KT 9999 -RA FEW005 SCT012 BKN023 16/15 Q1018 NOSIG

MVFR

16°C / 15°C

[أكثر]
رياح 360º 2kt
مجال رؤية >10km
حالة الطقس Light Rain 1.00mm precipitation
غيوم Vertical Visibility of 0ft.
الضغط 1018
تغيير No Significant change
خام LZIB 271730Z 36002KT 9999 -RA FEW005 SCT014 BKN019 16/15 Q1018 NOSIG

MVFR

16°C / 15°C

[أكثر]
رياح variable 2kt
مجال رؤية >10km
حالة الطقس Light Rain 1.00mm precipitation
غيوم Vertical Visibility of 0ft.
الضغط 1017
تغيير No Significant change
خام LZIB 271700Z VRB02KT 9999 -RA FEW003 SCT013 BKN020 16/15 Q1017 NOSIG

MVFR

16°C / 15°C

[أكثر]
رياح 350º 3kt
مجال رؤية >10km
حالة الطقس Light Rain 1.00mm precipitation
غيوم Vertical Visibility of 0ft.
الضغط 1017
تغيير No Significant change
خام LZIB 271630Z 35003KT 9999 -RA FEW004 SCT019 BKN027 16/15 Q1017 NOSIG

MVFR

16°C / 15°C

[أكثر]
رياح 360º 3kt
مجال رؤية >10km
حالة الطقس Light Rain 1.00mm precipitation
غيوم Vertical Visibility of 0ft.
الضغط 1017
تغيير No Significant change
خام LZIB 271600Z 36003KT 9999 -RA FEW004 SCT018 BKN024 16/15 Q1017 NOSIG

MVFR

16°C / 15°C

[أكثر]
رياح 350º 3kt
مجال رؤية 8000m
حالة الطقس Light Rain 1.00mm precipitation
غيوم Vertical Visibility of 0ft.
الضغط 1017
تغيير No Significant change
خام LZIB 271530Z 35003KT 8000 -RA FEW004 BKN018 16/15 Q1017 NOSIG

MVFR

16°C / 15°C

[أكثر]
رياح 10º 4kt
مجال رؤية 8000m
حالة الطقس Light Rain 1.00mm precipitation
غيوم Vertical Visibility of 0ft.
الضغط 1017
تغيير No Significant change
خام LZIB 271500Z 01004KT 8000 -RA FEW005 SCT014 BKN029 16/15 Q1017 NOSIG

MVFR

16°C / 15°C

[أكثر]
رياح variable 2kt
مجال رؤية 8000m
حالة الطقس Light Rain 1.00mm precipitation
غيوم Vertical Visibility of 0ft.
الضغط 1017
تغيير No Significant change
خام LZIB 271430Z VRB02KT 8000 -RA FEW005 SCT016 BKN029 16/15 Q1017 RERA NOSIG

انقر لIvanka pri Dunaji (LZIB)

From till


From till Wind 310º 8kt. Visibility 10km or more. Scattered Clouds 2000ft. Broken Clouds 2800ft.
With 40% probability, Temporarly from till Visibility 4000m. Light Rain . Few Clouds 600ft. Broken Clouds 1200ft.
Becoming from till Wind 310º 8kt. Visibility 10km or more. Few Clouds 2000ft.
Becoming from till Wind 340º 4kt. Visibility 10km or more. Nil Significant Cloud.

خام: TAF LZIB 272300Z 2800/2900 31008KT 9999 SCT020 BKN028 PROB40 TEMPO 2800/2807 4000 -RA FEW006 BKN012 BECMG 2808/2810 FEW020 BECMG 2813/2815 34004KT CAVOK

صور الأقمار الصناعية الملتقطة و الأمطار حالياً لIvanka pri Dunaji, سلوفاكيا

المؤشر يدل على موقع Ivanka pri Dunaji. [أكثر]

تجمع صورة الأقمار الصناعية في الوقت الفعلي بين الضوء المرئي أثناء النهار والأشعة تحت الحمراء أثناء الليل. لا تبدو الصورة مظلمة ليلاً، لأن الأشعة تحت الحمراء يمكنها الكشف عن الاختلافات في درجة الحرارة. لسوء الحظ ، يصعب التمييز بين السحب المنخفضة والضباب ودرجات حرارة الأرض ، وبالتالي يمكن أن تكون الصور غير مرئية تقريبًا أثناء الليل. يتم تحديث صور الأقمار الصناعية Meteosat الخاصة بأوروبا في الوقت الفعلي كل 5 دقائق، بينما يتم تحديث صور GOES-16 / GOES-17 (أمريكا الشمالية والجنوبية) و Himawari (آسيا) كل 10 دقائق.

يقدر هطول الأمطار من الرادار والأقمار الصناعية. تقديرات هطول الأمطار ليلا من قبل الأقمار الصناعية هي أقل دقة من النهار. اللون البرتقالي يعبر الأماكن حيث تم الكشف عن البرق (أكثر من أوروبا).

حقوق النسخ 2021 EUMETSAT / meteoblue. بيانات البرق مقدمة من nowcast.

رادار وهطول الأمطار التنبؤ الآني لIvanka pri Dunaji

رذاذ
ضوء
معتدل
ثقيل
ثقيل جدا
وابل

مؤشر المكان يشير الى Ivanka pri Dunaji. تظهر في هذه الرسوم المتحركة هطول الامطار بالرادار للساعة الماضية, و توقعات 1h. رذاذ أو تساقط ثلوج خفيف قد يكون غير مرئي للرادار. كثافة هطول الأمطار مرمزة بالألوان وتتراوح من الأزرق الفاتح إلى البرتقالي.

حالة الطقس الحالية والتحذيرات

EUMETNET – MeteoAlarm

pictomap

المصدر: SHMU

تأخر الوقت بين هذا الموقع و موقعwww.meteoalarm.eu ممكنة، لأحدث المعلومات حول مستويات الانذار والتي تم نشرها بالمشاركة مع منظمة خدمات الأرصاد الجوية الوطنية يرجى استخدام www.meteoalarm.eu.